Time;durP1;ratioP1;P1;durP2;ratioP2;P2;SDS_P1;SDS_P2;PMS_P1;PMS_P2;Temp;Humidity;BMP_temperature;BMP_pressure;BME280_temperature;BME280_humidity;BME280_pressure;Samples;Min_cycle;Max_cycle;Signal;HPM_P1;HPM_P2
2022/02/04 00:23:31;;;;;;;12.32;9.57;;;;;;;7.18;100.00;100668.09;5078479;28;20044;-73
2022/02/04 00:33:59;;;;;;;11.20;8.70;;;;;;;7.13;100.00;100660.63;5078371;28;20040;-74
2022/02/04 00:36:42;;;;;;;12.85;8.63;;;;;;;7.14;100.00;100665.03;5102531;28;20028;-73
2022/02/04 00:39:12;;;;;;;12.10;8.98;;;;;;;7.11;100.00;100657.28;5113086;28;20047;-73
2022/02/04 00:41:40;;;;;;;10.05;7.82;;;;;;;7.10;100.00;100657.53;5084585;28;20038;-74
2022/02/04 00:44:11;;;;;;;11.95;8.50;;;;;;;7.07;100.00;100660.84;5115553;28;20055;-74
2022/02/04 00:47:01;;;;;;;10.27;8.00;;;;;;;7.05;100.00;100652.84;5102525;28;20127;-74
2022/02/04 00:52:47;;;;;;;12.55;8.02;;;;;;;7.02;100.00;100656.13;5102498;28;20054;-74
2022/02/04 01:27:02;;;;;;;7.95;6.30;;;;;;;6.92;100.00;100639.50;5103218;28;20036;-74
2022/02/04 01:29:32;;;;;;;7.50;5.72;;;;;;;6.89;100.00;100638.09;5032600;28;20032;-74
2022/02/04 01:31:57;;;;;;;7.95;5.35;;;;;;;6.88;100.00;100636.44;5099474;28;20044;-74
2022/02/04 01:34:23;;;;;;;7.00;4.88;;;;;;;6.85;100.00;100636.97;5135861;28;20076;-74
2022/02/04 01:36:48;;;;;;;6.20;5.13;;;;;;;6.84;100.00;100628.94;5105047;28;20035;-74
2022/02/04 01:39:14;;;;;;;6.25;4.97;;;;;;;6.84;100.00;100624.25;5111340;28;20399;-74
2022/02/04 01:41:39;;;;;;;5.18;4.25;;;;;;;6.82;100.00;100623.69;5124208;28;20052;-74
2022/02/04 01:44:24;;;;;;;6.55;5.05;;;;;;;6.85;100.00;100638.88;5136819;28;20046;-74
2022/02/04 01:46:49;;;;;;;6.63;4.57;;;;;;;6.80;100.00;100631.41;5132835;28;20034;-74
2022/02/04 01:49:15;;;;;;;5.57;4.15;;;;;;;6.82;100.00;100633.91;5117856;28;20399;-74
2022/02/04 01:51:40;;;;;;;6.43;4.82;;;;;;;6.80;100.00;100642.47;5098127;28;20467;-74
2022/02/04 01:54:06;;;;;;;6.07;4.38;;;;;;;6.80;100.00;100638.84;5099739;28;20031;-74
2022/02/04 01:56:31;;;;;;;6.28;4.10;;;;;;;6.79;100.00;100643.53;5084002;28;20038;-74
2022/02/04 01:58:56;;;;;;;5.25;4.03;;;;;;;6.80;100.00;100636.09;5133768;28;20524;-73
2022/02/04 02:01:22;;;;;;;6.57;4.30;;;;;;;6.78;100.00;100636.38;5134272;27;20035;-74
2022/02/04 02:03:47;;;;;;;5.00;3.75;;;;;;;6.78;100.00;100635.53;5101216;28;20046;-73
2022/02/04 02:06:13;;;;;;;4.60;3.92;;;;;;;6.73;100.00;100639.09;5098486;28;20030;-74
2022/02/04 02:08:41;;;;;;;4.80;3.65;;;;;;;6.72;100.00;100637.44;5116868;28;20115;-73
2022/02/04 02:11:09;;;;;;;6.13;3.75;;;;;;;6.71;100.00;100638.50;5069806;28;20028;-74
2022/02/04 02:13:45;;;;;;;4.85;3.70;;;;;;;6.73;100.00;100636.34;5115380;28;20747;-74
2022/02/04 02:54:14;;;;;;;5.05;3.92;;;;;;;6.57;100.00;100588.47;5086838;28;20086;-74
2022/02/04 02:59:15;;;;;;;7.95;4.65;;;;;;;6.60;100.00;100587.09;5100134;28;20028;-74
2022/02/04 03:01:45;;;;;;;6.07;4.40;;;;;;;6.58;100.00;100589.31;5107522;28;20035;-74
2022/02/04 03:04:14;;;;;;;6.15;4.50;;;;;;;6.56;100.00;100583.22;5100110;28;20028;-74
2022/02/04 03:06:40;;;;;;;6.38;4.85;;;;;;;6.57;100.00;100584.88;5090055;28;20023;-74
2022/02/04 03:09:05;;;;;;;6.72;4.47;;;;;;;6.59;100.00;100582.69;5108117;28;20066;-74
2022/02/04 03:11:31;;;;;;;6.22;4.45;;;;;;;6.58;100.00;100575.53;5069431;28;20024;-74
2022/02/04 03:13:56;;;;;;;5.43;4.63;;;;;;;6.56;100.00;100583.22;5095591;28;20031;-74
2022/02/04 03:16:23;;;;;;;5.85;4.63;;;;;;;6.57;100.00;100584.88;5098234;28;20031;-74
2022/02/04 03:18:51;;;;;;;5.45;4.70;;;;;;;6.57;100.00;100576.59;5095054;28;20028;-74
2022/02/04 03:21:22;;;;;;;5.32;4.40;;;;;;;6.54;100.00;100568.84;5094834;28;20513;-74
2022/02/04 03:23:53;;;;;;;7.57;4.93;;;;;;;6.55;100.00;100570.53;5091314;28;20037;-74
2022/02/04 03:27:08;;;;;;;5.40;4.40;;;;;;;6.54;100.00;100564.16;5092078;28;20036;-74
2022/02/04 03:29:04;;;;;;;6.85;4.35;;;;;;;6.55;100.00;100557.56;5091871;28;20043;-74
2022/02/04 03:31:35;;;;;;;4.97;4.03;;;;;;;6.55;100.00;100553.97;5101034;28;20039;-73
2022/02/04 03:34:03;;;;;;;5.35;4.15;;;;;;;6.54;100.00;100555.06;5097395;28;20040;-74
2022/02/04 03:36:28;;;;;;;4.95;4.05;;;;;;;6.53;100.00;100551.47;5054864;28;20039;-74
2022/02/04 03:38:54;;;;;;;7.40;4.40;;;;;;;6.54;100.00;100557.81;5081374;28;20118;-74
2022/02/04 03:41:19;;;;;;;6.38;4.10;;;;;;;6.53;100.00;100553.41;5065342;28;20035;-73
2022/02/04 03:43:45;;;;;;;4.80;4.22;;;;;;;6.52;100.00;100565.53;5117151;28;20035;-74
2022/02/04 03:46:10;;;;;;;7.07;4.57;;;;;;;6.52;100.00;100560.00;5091782;28;20035;-74
2022/02/04 03:48:35;;;;;;;4.88;3.65;;;;;;;6.51;100.00;100558.34;5075303;28;20040;-74
2022/02/04 03:51:01;;;;;;;5.32;3.80;;;;;;;6.51;100.00;100559.19;5080139;28;20395;-74
2022/02/04 03:53:27;;;;;;;7.28;4.10;;;;;;;6.51;100.00;100561.13;5066370;28;20112;-74
2022/02/04 03:55:52;;;;;;;5.35;3.63;;;;;;;6.49;100.00;100562.22;5116625;28;20388;-74
2022/02/04 03:58:18;;;;;;;4.35;3.75;;;;;;;6.48;100.00;100566.06;5115006;28;20062;-74
2022/02/04 04:00:43;;;;;;;6.03;4.20;;;;;;;6.49;100.00;100556.72;5097652;28;20028;-74
2022/02/04 04:03:09;;;;;;;7.30;3.95;;;;;;;6.50;100.00;100563.06;5115246;28;20032;-74
2022/02/04 04:05:42;;;;;;;6.68;3.92;;;;;;;6.49;100.00;100558.59;5093562;28;20032;-74
2022/02/04 04:08:08;;;;;;;6.93;4.03;;;;;;;6.46;100.00;100557.25;5093134;28;20102;-74
2022/02/04 04:10:39;;;;;;;6.22;3.90;;;;;;;6.46;100.00;100562.75;5097417;28;20038;-74
2022/02/04 04:13:05;;;;;;;3.90;3.30;;;;;;;6.46;100.00;100557.25;5113179;28;20035;-74
2022/02/04 04:15:30;;;;;;;5.03;3.63;;;;;;;6.47;100.00;100563.59;5077269;28;20120;-73
2022/02/04 04:17:56;;;;;;;6.43;3.70;;;;;;;6.47;100.00;100560.81;5111240;28;20114;-74
2022/02/04 04:20:22;;;;;;;8.02;3.90;;;;;;;6.48;100.00;100563.31;5080363;28;20028;-74
2022/02/04 04:22:48;;;;;;;5.25;4.05;;;;;;;6.47;100.00;100563.59;5116975;28;20039;-73
2022/02/04 04:25:14;;;;;;;5.50;3.92;;;;;;;6.47;100.00;100563.59;5114528;28;20043;-74
2022/02/04 04:27:42;;;;;;;5.43;3.83;;;;;;;6.46;100.00;100564.66;5098671;28;20279;-73
2022/02/04 04:30:12;;;;;;;3.78;3.45;;;;;;;6.46;100.00;100568.28;5092911;28;20409;-74
2022/02/04 04:32:37;;;;;;;5.72;3.70;;;;;;;6.48;100.00;100566.06;5100334;28;20043;-73
2022/02/04 04:35:04;;;;;;;4.65;3.70;;;;;;;6.48;100.00;100562.47;5075186;28;20039;-74
2022/02/04 04:37:29;;;;;;;5.50;3.72;;;;;;;6.47;100.00;100553.38;5076412;28;20040;-74
2022/02/04 05:31:16;;;;;;;4.78;3.38;;;;;;;6.43;100.00;100549.47;5102134;28;20513;-74
2022/02/04 05:33:42;;;;;;;5.60;3.50;;;;;;;6.43;100.00;100549.47;5098738;28;20032;-73
2022/02/04 05:36:09;;;;;;;6.63;3.90;;;;;;;6.43;100.00;100546.72;5084164;28;20040;-74
2022/02/04 05:38:35;;;;;;;4.45;3.30;;;;;;;6.44;100.00;100545.63;5117766;28;20035;-74
2022/02/04 05:41:01;;;;;;;5.15;3.28;;;;;;;6.44;100.00;100539.28;5108276;28;20035;-74
2022/02/04 05:43:30;;;;;;;4.47;3.22;;;;;;;6.43;100.00;100543.94;5105976;28;20028;-74
2022/02/04 05:46:07;;;;;;;5.32;3.58;;;;;;;6.42;100.00;100545.06;5090879;28;20095;-74
2022/02/04 05:48:35;;;;;;;4.85;3.30;;;;;;;6.42;100.00;100538.72;5090347;28;20089;-74
2022/02/04 05:53:39;;;;;;;6.22;3.55;;;;;;;6.43;100.00;100545.88;5079553;28;20028;-74
2022/02/04 05:56:27;;;;;;;6.00;3.30;;;;;;;6.42;100.00;100539.53;5071031;28;20060;-74
2022/02/04 05:59:09;;;;;;;6.30;3.40;;;;;;;6.41;100.00;100540.66;5081945;28;20096;-74
2022/02/04 06:10:01;;;;;;;7.50;5.28;;;;;;;6.41;100.00;100520.50;5103903;28;20071;-73
2022/02/04 06:22:57;;;;;;;4.32;3.40;;;;;;;6.37;100.00;100520.19;5115834;28;20480;-74
2022/02/04 06:25:22;;;;;;;4.53;3.10;;;;;;;6.35;100.00;100511.38;5100678;28;20039;-74
2022/02/04 06:27:48;;;;;;;5.75;3.75;;;;;;;6.36;100.00;100507.50;5096142;28;20047;-74
2022/02/04 06:30:13;;;;;;;4.68;3.42;;;;;;;6.34;100.00;100515.22;5075381;28;20039;-74
2022/02/04 06:32:39;;;;;;;6.13;4.13;;;;;;;6.33;100.00;100505.28;5102598;28;20040;-73
2022/02/04 06:35:07;;;;;;;6.60;4.32;;;;;;;6.33;100.00;100508.03;5100059;27;20390;-74
2022/02/04 06:37:32;;;;;;;5.13;3.90;;;;;;;6.32;100.00;100514.63;5122593;27;20019;-74
2022/02/04 06:39:58;;;;;;;5.68;4.00;;;;;;;6.32;100.00;100516.56;5135241;27;20046;-73
2022/02/04 06:42:27;;;;;;;6.40;4.18;;;;;;;6.33;100.00;100519.06;5139557;27;20027;-74
2022/02/04 06:44:53;;;;;;;5.38;4.28;;;;;;;6.33;100.00;100523.75;5097578;28;20444;-73
2022/02/04 06:47:18;;;;;;;4.63;3.85;;;;;;;6.34;100.00;100528.19;5097506;27;20036;-74
2022/02/04 06:49:44;;;;;;;6.32;3.92;;;;;;;6.34;100.00;100530.94;5081130;28;20081;-73
2022/02/04 06:52:10;;;;;;;8.63;4.60;;;;;;;6.34;100.00;100525.41;5102943;27;20062;-74
2022/02/04 06:54:35;;;;;;;6.68;4.53;;;;;;;6.33;100.00;100512.72;5115110;27;20031;-75
2022/02/04 06:57:00;;;;;;;6.50;4.90;;;;;;;6.32;100.00;100511.06;5106070;27;20061;-74
2022/02/04 06:59:26;;;;;;;6.00;4.15;;;;;;;6.33;100.00;100512.72;5123957;27;20035;-73
2022/02/04 07:01:51;;;;;;;7.45;4.57;;;;;;;6.32;100.00;100511.88;5067109;28;20032;-74
2022/02/04 07:04:17;;;;;;;7.88;4.90;;;;;;;6.32;100.00;100517.41;5073889;27;20088;-73
2022/02/04 07:06:51;;;;;;;6.68;4.25;;;;;;;6.29;100.00;100517.94;5097861;28;20179;-74
2022/02/04 07:09:38;;;;;;;6.15;4.10;;;;;;;6.31;100.00;100515.75;5070154;28;20077;-73
2022/02/04 07:12:25;;;;;;;5.50;4.25;;;;;;;6.29;100.00;100515.16;5126358;27;20036;-74
2022/02/04 07:17:38;;;;;;;7.93;4.45;;;;;;;6.31;100.00;100515.75;5127884;27;20047;-73
2022/02/04 07:20:04;;;;;;;6.07;3.95;;;;;;;6.29;100.00;100517.94;5129071;27;20111;-72
2022/02/04 07:22:31;;;;;;;5.20;3.67;;;;;;;6.30;100.00;100525.13;5113473;27;20414;-74
2022/02/04 07:24:59;;;;;;;5.63;3.92;;;;;;;6.29;100.00;100528.97;5099268;27;20024;-74
2022/02/04 07:27:28;;;;;;;5.15;4.18;;;;;;;6.30;100.00;100529.81;5104391;27;20571;-74
2022/02/04 07:29:55;;;;;;;5.00;3.55;;;;;;;6.29;100.00;100534.47;5094272;28;20055;-74
2022/02/04 07:32:43;;;;;;;6.38;4.40;;;;;;;6.30;100.00;100533.41;5060214;28;20048;-73
2022/02/04 07:41:00;;;;;;;8.32;5.05;;;;;;;6.30;100.00;100536.16;5096449;28;20031;-73
2022/02/04 07:43:27;;;;;;;9.30;5.10;;;;;;;6.32;100.00;100535.88;5095245;28;20032;-74
2022/02/04 07:45:53;;;;;;;7.93;5.03;;;;;;;6.30;100.00;100532.56;5077286;28;20062;-74
2022/02/04 07:48:18;;;;;;;7.97;5.75;;;;;;;6.32;100.00;100536.69;5098400;28;20039;-74
2022/02/04 07:50:44;;;;;;;8.63;4.93;;;;;;;6.33;100.00;100543.91;5084834;28;20356;-74
2022/02/04 07:53:10;;;;;;;9.00;4.80;;;;;;;6.35;100.00;100541.72;5105193;28;20072;-74
2022/02/04 07:55:35;;;;;;;7.25;5.15;;;;;;;6.36;100.00;100539.78;5102449;28;20032;-73
2022/02/04 07:58:01;;;;;;;7.20;4.82;;;;;;;6.36;100.00;100531.50;5106328;28;20487;-74
2022/02/04 08:00:27;;;;;;;11.02;5.07;;;;;;;6.37;100.00;100539.50;5096731;28;20019;-74
2022/02/04 08:02:53;;;;;;;9.40;5.70;;;;;;;6.39;100.00;100534.56;5103435;28;20032;-74
2022/02/04 08:05:22;;;;;;;7.45;5.20;;;;;;;6.39;100.00;100534.56;5108513;28;20031;-74
2022/02/04 08:07:54;;;;;;;6.65;4.28;;;;;;;6.39;100.00;100540.06;5108513;28;20067;-74
2022/02/04 08:10:29;;;;;;;8.53;4.70;;;;;;;6.40;100.00;100541.72;5096452;28;20466;-73
2022/02/04 08:18:31;;;;;;;4.70;3.35;;;;;;;6.45;100.00;100544.53;5089756;28;20059;-74
2022/02/04 08:35:26;;;;;;;6.53;3.10;;;;;;;6.56;100.00;100539.09;5109335;28;20387;-74
2022/02/04 08:46:39;;;;;;;4.53;3.03;;;;;;;6.59;100.00;100524.75;5094479;28;20035;-74
2022/02/04 08:48:09;;;;;;;5.95;3.28;;;;;;;6.65;100.00;100520.91;5081601;28;20040;-73
2022/02/04 08:50:46;;;;;;;5.05;3.10;;;;;;;6.70;100.00;100523.69;5063629;28;20034;-73
2022/02/04 08:53:37;;;;;;;5.97;2.90;;;;;;;6.72;100.00;100522.34;5081421;28;20051;-74
2022/02/04 08:55:59;;;;;;;5.57;2.78;;;;;;;6.80;100.00;100506.34;5103054;28;20046;-74
2022/02/04 08:58:48;;;;;;;4.28;2.70;;;;;;;6.82;100.00;100517.97;5101429;27;20114;-74
2022/02/04 09:01:23;;;;;;;4.15;2.45;;;;;;;6.85;100.00;100507.22;5105374;27;20472;-74
2022/02/04 09:03:52;;;;;;;3.90;2.67;;;;;;;6.92;100.00;100506.97;5090235;28;20028;-74
2022/02/04 09:06:23;;;;;;;3.72;2.63;;;;;;;6.93;100.00;100506.69;5092854;28;20037;-74
2022/02/04 09:09:13;;;;;;;4.55;2.13;;;;;;;6.98;100.00;100507.81;5089154;28;20036;-74
2022/02/04 09:17:03;;;;;;;4.43;2.30;;;;;;;7.14;100.00;100509.53;5111029;28;20121;-74
2022/02/04 09:19:42;;;;;;;5.38;2.33;;;;;;;7.18;100.00;100499.59;5052718;28;20034;-74
2022/02/04 09:24:46;;;;;;;;;;;;;;;7.32;100.00;100506.25;5070205;28;20040;-74
2022/02/04 09:27:11;;;;;;;3.97;2.10;;;;;;;7.38;100.00;100507.09;5077874;28;20347;-74
2022/02/04 09:29:37;;;;;;;4.30;2.45;;;;;;;7.44;100.00;100489.44;5072493;28;20040;-74
2022/02/04 09:32:02;;;;;;;7.35;2.90;;;;;;;7.51;100.00;100481.72;5087859;28;20036;-74
2022/02/04 09:34:28;;;;;;;8.15;2.70;;;;;;;7.56;100.00;100487.25;5120246;28;20028;-74
2022/02/04 09:36:53;;;;;;;4.93;2.65;;;;;;;7.60;100.00;100488.38;5093996;28;20031;-74
2022/02/04 09:39:19;;;;;;;4.13;1.90;;;;;;;7.66;100.00;100497.50;5082970;28;20471;-74
2022/02/04 09:41:44;;;;;;;4.68;2.35;;;;;;;7.71;100.00;100494.72;5097985;28;20028;-75
2022/02/04 09:44:10;;;;;;;3.50;2.10;;;;;;;7.76;100.00;100491.97;5083290;28;20027;-74
2022/02/04 09:46:36;;;;;;;4.97;2.20;;;;;;;7.81;100.00;100493.91;5083817;28;20038;-74
2022/02/04 09:49:03;;;;;;;2.88;1.88;;;;;;;7.86;100.00;100490.31;5095511;28;20445;-74
2022/02/04 09:51:47;;;;;;;4.03;1.90;;;;;;;7.92;100.00;100495.56;5082693;28;20568;-74
2022/02/04 10:08:41;;;;;;;3.40;1.50;;;;;;;8.40;100.00;100484.19;5098388;28;20031;-74
2022/02/04 10:19:31;;;;;;;4.03;1.50;;;;;;;8.81;100.00;100467.47;5116098;28;20036;-74
2022/02/04 10:22:00;;;;;;;4.07;1.40;;;;;;;8.93;100.00;100459.63;5099460;28;20061;-75
2022/02/04 10:24:26;;;;;;;4.60;2.08;;;;;;;9.06;100.00;100475.66;5100576;28;20039;-74
2022/02/04 10:27:16;;;;;;;4.68;1.60;;;;;;;9.20;100.00;100475.84;5115454;28;20035;-75
2022/02/04 10:30:06;;;;;;;3.83;1.70;;;;;;;9.36;100.00;100484.88;5097723;28;20111;-75
2022/02/04 10:32:51;;;;;;;6.25;2.20;;;;;;;9.47;100.00;100483.75;5121339;27;20080;-75
2022/02/04 10:35:27;;;;;;;6.10;1.90;;;;;;;9.56;100.00;100481.19;5100639;28;20043;-75
2022/02/04 10:40:49;;;;;;;6.85;2.25;;;;;;;9.73;100.00;100484.38;5115852;28;20024;-74
2022/02/04 10:43:46;;;;;;;6.05;2.30;;;;;;;9.82;100.00;100479.03;5110154;28;20088;-75
2022/02/04 10:49:10;;;;;;;4.75;1.48;;;;;;;9.96;100.00;100493.88;5093465;28;20462;-74
2022/02/04 10:54:54;;;;;;;4.90;1.75;;;;;;;10.13;100.00;100485.13;5092847;28;20411;-75
2022/02/04 11:02:51;;;;;;;6.25;1.83;;;;;;;10.36;100.00;100482.72;5117495;28;20392;-75
2022/02/04 11:05:24;;;;;;;3.30;1.88;;;;;;;10.43;100.00;100486.81;5091573;28;20513;-75
2022/02/04 11:35:08;;;;;;;3.63;1.30;;;;;;;10.78;100.00;100508.94;5113150;28;20040;-74
2022/02/04 11:52:30;;;;;;;3.72;1.50;;;;;;;10.85;100.00;100492.75;5052072;28;20047;-74
2022/02/04 11:55:00;;;;;;;5.05;1.80;;;;;;;10.87;100.00;100501.63;5050833;28;20040;-74
2022/02/04 11:57:26;;;;;;;5.93;2.28;;;;;;;10.85;100.00;100499.13;5048243;28;20033;-74
2022/02/04 11:59:56;;;;;;;6.30;1.60;;;;;;;10.84;100.00;100489.16;5073193;28;20101;-73
2022/02/04 12:02:24;;;;;;;8.15;1.33;;;;;;;10.83;100.00;100487.47;5056615;28;20044;-73
2022/02/04 12:05:02;;;;;;;3.55;1.67;;;;;;;10.81;100.00;100489.75;5069515;28;20035;-77
2022/02/04 12:07:45;;;;;;;10.38;2.15;;;;;;;10.79;100.00;100494.75;5068594;28;20110;-76
2022/02/04 12:10:13;;;;;;;6.05;1.90;;;;;;;10.78;100.00;100493.13;5057702;28;20131;-80
2022/02/04 12:15:28;;;;;;;5.40;1.48;;;;;;;10.76;100.00;100489.78;5065657;28;20052;-79
2022/02/04 12:18:00;;;;;;;8.65;1.80;;;;;;;10.75;100.00;100485.34;5061243;28;20037;-77
2022/02/04 12:20:44;;;;;;;6.38;1.77;;;;;;;10.76;100.00;100487.00;5046723;28;20657;-76
2022/02/04 12:23:09;;;;;;;5.05;1.50;;;;;;;10.78;100.00;100508.94;5071453;28;20033;-78
2022/02/04 12:25:55;;;;;;;7.35;1.90;;;;;;;10.76;100.00;100542.56;5065366;28;20070;-77
2022/02/04 12:28:45;;;;;;;5.93;1.65;;;;;;;10.71;100.00;100559.28;5086426;28;20032;-77
2022/02/04 12:31:24;;;;;;;2.05;0.70;;;;;;;10.60;100.00;100557.75;5103524;27;20048;-78
2022/02/04 12:33:54;;;;;;;3.13;0.50;;;;;;;10.45;100.00;100578.97;5099695;28;20030;-77
2022/02/04 12:36:26;;;;;;;4.85;0.88;;;;;;;10.33;100.00;100569.38;5105015;28;20028;-74
2022/02/04 12:38:57;;;;;;;2.17;0.80;;;;;;;10.17;100.00;100571.41;5118064;27;20023;-73
2022/02/04 12:41:23;;;;;;;1.20;0.70;;;;;;;10.02;100.00;100575.97;5114495;27;20495;-73
2022/02/04 12:43:51;;;;;;;2.05;0.90;;;;;;;9.86;100.00;100582.72;5135494;27;20030;-73
2022/02/04 12:46:17;;;;;;;2.05;1.05;;;;;;;9.70;100.00;100590.34;5120211;27;20069;-73
2022/02/04 12:49:04;;;;;;;1.00;0.60;;;;;;;9.39;100.00;100603.53;5105943;27;20090;-74
2022/02/04 12:51:38;;;;;;;1.90;0.60;;;;;;;9.28;100.00;100599.16;5129330;27;20091;-73
2022/02/04 12:54:03;;;;;;;0.95;0.50;;;;;;;9.24;100.00;100598.03;5136212;27;20126;-73
2022/02/04 12:56:36;;;;;;;0.93;0.45;;;;;;;9.13;100.00;100603.59;5088753;27;20109;-74
2022/02/04 13:02:04;;;;;;;1.77;0.80;;;;;;;9.02;100.00;100615.81;5123283;27;19916;-73
2022/02/04 13:07:44;;;;;;;4.03;0.98;;;;;;;8.70;100.00;100635.56;5104270;27;20406;-73
2022/02/04 13:10:09;;;;;;;8.38;1.30;;;;;;;8.55;100.00;100643.88;5117030;27;20028;-74
2022/02/04 13:13:02;;;;;;;5.90;0.90;;;;;;;8.34;100.00;100645.78;5114689;28;20087;-73
2022/02/04 13:15:29;;;;;;;4.60;0.97;;;;;;;8.36;100.00;100632.47;5094714;28;20106;-73
2022/02/04 13:17:56;;;;;;;7.60;1.70;;;;;;;8.27;100.00;100641.38;5110216;28;20034;-73
2022/02/04 13:20:22;;;;;;;9.80;1.50;;;;;;;8.25;100.00;100632.50;5088522;28;20036;-73
2022/02/04 13:23:01;;;;;;;4.95;1.55;;;;;;;8.23;100.00;100645.78;5086135;28;20060;-73
2022/02/04 13:25:30;;;;;;;6.75;1.60;;;;;;;8.20;100.00;100639.97;5073192;28;20031;-73
2022/02/04 13:28:08;;;;;;;11.75;2.38;;;;;;;8.21;100.00;100638.84;5129912;27;20031;-73
2022/02/04 13:30:36;;;;;;;7.38;1.70;;;;;;;8.18;100.00;100645.75;5113153;28;20063;-74
2022/02/04 13:33:01;;;;;;;12.15;1.73;;;;;;;8.17;100.00;100649.63;5117883;27;20032;-73
2022/02/04 13:35:40;;;;;;;8.85;1.63;;;;;;;8.12;100.00;100646.88;5067744;28;20028;-73
2022/02/04 13:38:21;;;;;;;7.85;1.63;;;;;;;8.14;100.00;100646.59;5114180;28;20031;-73
2022/02/04 13:43:37;;;;;;;9.32;1.77;;;;;;;8.10;100.00;100649.06;5120397;28;20484;-73
2022/02/04 13:46:18;;;;;;;11.15;1.77;;;;;;;8.08;100.00;100665.13;5101049;28;20118;-73
2022/02/04 13:51:56;;;;;;;12.77;1.67;;;;;;;8.04;100.00;100664.00;5117338;28;20030;-73
2022/02/04 13:54:51;;;;;;;9.30;1.52;;;;;;;8.05;100.00;100671.19;5108397;27;20027;-73
2022/02/04 14:00:42;;;;;;;8.25;1.45;;;;;;;7.98;100.00;100670.63;5060789;28;20040;-73
2022/02/04 14:03:10;;;;;;;14.20;1.98;;;;;;;7.91;100.00;100675.56;5123461;28;20080;-73
2022/02/04 14:05:43;;;;;;;14.57;1.75;;;;;;;7.94;100.00;100669.50;5125242;28;20130;-73
2022/02/04 14:08:12;;;;;;;14.88;1.92;;;;;;;7.98;100.00;100673.38;5134532;28;20038;-73
2022/02/04 14:10:56;;;;;;;8.70;2.53;;;;;;;8.01;100.00;100675.59;5130565;28;20042;-73
2022/02/04 14:13:25;;;;;;;10.68;2.40;;;;;;;8.01;100.00;100681.97;5111503;28;20031;-73
2022/02/04 14:15:54;;;;;;;19.83;5.25;;;;;;;8.05;100.00;100687.78;5105971;28;20028;-73
2022/02/04 14:18:20;;;;;;;15.48;4.10;;;;;;;8.07;100.00;100688.34;5099994;27;20031;-73
2022/02/04 14:20:45;;;;;;;16.00;4.10;;;;;;;8.11;100.00;100695.00;5100864;28;20080;-73
2022/02/04 14:23:11;;;;;;;14.52;3.40;;;;;;;8.17;100.00;100693.91;5137040;27;20091;-73
2022/02/04 14:25:52;;;;;;;10.25;2.78;;;;;;;8.18;100.00;100695.56;5125407;27;20035;-73
2022/02/04 14:28:23;;;;;;;15.02;3.10;;;;;;;8.18;98.77;100686.44;5134256;27;20035;-73
2022/02/04 14:30:57;;;;;;;11.60;2.25;;;;;;;8.16;96.01;100695.03;5121561;27;20035;-73
2022/02/04 14:34:39;;;;;;;11.10;3.03;;;;;;;8.15;97.40;100704.41;5096799;28;20028;-73
2022/02/04 14:36:21;;;;;;;13.63;2.40;;;;;;;8.10;96.15;100700.78;5117713;27;20503;-73
2022/02/04 14:50:04;;;;;;;16.65;2.72;;;;;;;7.90;94.47;100729.22;5110793;27;20113;-73
2022/02/04 14:52:32;;;;;;;14.25;3.17;;;;;;;7.80;93.33;100727.25;5116379;27;20047;-73
2022/02/04 15:02:50;;;;;;;14.90;2.38;;;;;;;7.60;94.48;100747.34;5108857;27;20039;-73
2022/02/04 15:05:19;;;;;;;13.13;2.35;;;;;;;7.55;93.36;100750.06;5104831;27;20476;-73
2022/02/04 15:07:47;;;;;;;13.93;3.47;;;;;;;7.45;91.49;100756.38;5093110;27;20034;-73
2022/02/04 15:10:25;;;;;;;12.25;2.28;;;;;;;7.43;93.04;100760.50;5084399;28;20057;-73
2022/02/04 15:12:51;;;;;;;12.85;2.67;;;;;;;7.39;91.66;100768.50;5093117;27;20051;-73
2022/02/04 15:15:16;;;;;;;18.30;4.13;;;;;;;7.35;92.13;100770.97;5136452;27;20541;-73
2022/02/04 15:17:42;;;;;;;12.73;2.50;;;;;;;7.33;93.62;100769.59;5111124;27;20031;-73
2022/02/04 15:20:08;;;;;;;15.27;2.15;;;;;;;7.32;92.05;100773.41;5128211;27;20031;-73
2022/02/04 15:22:33;;;;;;;10.82;2.40;;;;;;;7.31;92.50;100772.59;5116175;27;20387;-73
2022/02/04 15:25:07;;;;;;;14.45;2.53;;;;;;;7.30;92.84;100782.00;5078544;27;20027;-73
2022/02/04 15:27:36;;;;;;;11.93;2.50;;;;;;;7.26;93.06;100769.78;5091331;27;20396;-73
2022/02/04 15:30:02;;;;;;;10.93;2.28;;;;;;;7.22;92.46;100782.50;5079581;27;20398;-73
2022/02/04 15:32:29;;;;;;;12.27;2.10;;;;;;;7.23;93.46;100786.91;5128854;27;20039;-73
2022/02/04 15:34:55;;;;;;;8.20;1.77;;;;;;;7.20;91.98;100783.84;5125714;27;20035;-71
2022/02/04 15:37:20;;;;;;;9.43;1.75;;;;;;;7.19;90.79;100791.31;5110679;27;20042;-73
2022/02/04 15:39:46;;;;;;;9.20;1.42;;;;;;;7.19;91.39;100790.44;5135959;27;20034;-73
2022/02/04 15:42:14;;;;;;;14.18;1.73;;;;;;;7.15;91.14;100787.38;5092409;27;20387;-73
2022/02/04 15:44:46;;;;;;;14.05;1.98;;;;;;;7.11;90.48;100805.59;5095752;28;20031;-73
2022/02/04 15:50:04;;;;;;;8.20;1.40;;;;;;;7.08;92.38;100803.38;5121264;27;20157;-73
2022/02/04 16:00:35;;;;;;;10.32;1.75;;;;;;;6.89;93.78;100812.03;5101875;27;20031;-73
2022/02/04 16:05:45;;;;;;;11.57;2.00;;;;;;;6.81;94.53;100812.50;5124270;27;19918;-73
2022/02/04 16:08:13;;;;;;;10.80;2.10;;;;;;;6.78;94.12;100818.56;5133104;27;20035;-74
2022/02/04 16:10:58;;;;;;;11.50;2.65;;;;;;;6.72;95.15;100822.38;5103792;27;20031;-74
2022/02/04 16:16:10;;;;;;;10.25;2.53;;;;;;;6.70;97.02;100832.84;5111032;27;20061;-73
2022/02/04 16:18:45;;;;;;;16.20;3.00;;;;;;;6.67;97.40;100839.69;5133696;27;20038;-73
2022/02/04 16:21:18;;;;;;;14.25;2.50;;;;;;;6.61;95.79;100850.97;5123427;27;20480;-73
2022/02/04 16:26:47;;;;;;;16.65;3.03;;;;;;;6.55;95.75;100852.00;5135286;27;20038;-73
2022/02/04 16:29:06;;;;;;;12.60;3.30;;;;;;;6.49;96.01;100857.47;5111047;27;20067;-74
2022/02/04 16:31:32;;;;;;;11.50;2.55;;;;;;;6.44;95.04;100857.41;5116021;27;20048;-74
2022/02/04 16:33:57;;;;;;;18.30;2.85;;;;;;;6.40;95.42;100864.50;5097692;28;20081;-74
2022/02/04 16:36:24;;;;;;;12.88;3.40;;;;;;;6.37;94.85;100872.47;5075291;28;20032;-73
2022/02/04 16:38:54;;;;;;;15.50;2.42;;;;;;;6.31;94.58;100873.50;5099819;28;20031;-72
2022/02/04 16:41:27;;;;;;;14.23;3.00;;;;;;;6.29;94.37;100871.00;5103827;28;20106;-73
2022/02/04 16:43:52;;;;;;;13.20;2.70;;;;;;;6.23;95.39;100883.88;5103284;28;20034;-72
2022/02/04 16:46:18;;;;;;;14.10;2.55;;;;;;;6.17;94.97;100884.91;5090651;28;20032;-73
2022/02/04 16:48:43;;;;;;;14.65;2.67;;;;;;;6.13;94.80;100893.94;5087145;28;20035;-73
2022/02/04 16:51:10;;;;;;;17.33;3.00;;;;;;;6.07;94.41;100906.81;5104696;28;20483;-73
2022/02/04 16:53:35;;;;;;;15.70;3.10;;;;;;;6.05;96.06;100909.03;5104648;28;20047;-72
2022/02/04 16:56:02;;;;;;;15.23;3.50;;;;;;;5.99;95.39;100908.13;5094157;28;20043;-72
2022/02/04 16:58:27;;;;;;;15.07;3.78;;;;;;;5.98;97.92;100908.34;5104291;28;20487;-73
2022/02/04 17:00:53;;;;;;;17.35;3.45;;;;;;;5.95;98.53;100908.88;5090319;28;20173;-72
2022/02/04 17:03:18;;;;;;;18.45;3.80;;;;;;;5.89;98.23;100910.69;5101562;28;20101;-73
2022/02/04 17:08:13;;;;;;;20.30;4.45;;;;;;;5.89;99.71;100910.69;5105660;28;20032;-72
2022/02/04 17:10:42;;;;;;;18.20;3.80;;;;;;;5.89;100.00;100918.97;5097651;28;20112;-72
2022/02/04 17:13:08;;;;;;;13.93;4.00;;;;;;;5.85;100.00;100926.06;5088304;28;20023;-73
2022/02/04 17:15:35;;;;;;;15.55;4.30;;;;;;;5.82;100.00;100921.91;5059578;28;20703;-72
2022/02/04 17:18:01;;;;;;;15.40;4.30;;;;;;;5.82;100.00;100938.44;5104350;28;20036;-72
2022/02/04 17:20:27;;;;;;;15.70;4.22;;;;;;;5.78;100.00;100931.75;5077525;28;20062;-72
2022/02/04 17:22:53;;;;;;;19.30;4.53;;;;;;;5.77;100.00;100943.88;5102557;28;20035;-72
2022/02/04 17:25:25;;;;;;;18.92;5.20;;;;;;;5.73;100.00;100945.44;5085328;28;20031;-72
2022/02/04 17:27:51;;;;;;;15.15;4.50;;;;;;;5.70;100.00;100945.13;5108655;28;20031;-72
2022/02/04 17:30:16;;;;;;;14.02;4.63;;;;;;;5.67;100.00;100948.38;5065523;28;20648;-72
2022/02/04 17:32:43;;;;;;;15.15;4.53;;;;;;;5.60;100.00;100952.13;5134286;27;20052;-72
2022/02/04 17:35:09;;;;;;;13.73;4.45;;;;;;;5.55;100.00;100952.06;5126394;28;20023;-72
2022/02/04 17:37:34;;;;;;;10.77;4.47;;;;;;;5.51;100.00;100959.13;5131403;27;20058;-70